createdAt,value
2024-02-12T00:00:33.080Z,80.86
2024-02-12T00:03:24.202Z,80.96
2024-02-12T00:05:53.544Z,80.92
2024-02-12T00:08:24.232Z,80.92
2024-02-12T00:10:56.036Z,80.91
2024-02-12T00:13:28.672Z,80.92
2024-02-12T00:15:58.051Z,80.77
2024-02-12T00:18:28.756Z,80.76
2024-02-12T00:20:58.511Z,80.79
2024-02-12T00:23:29.046Z,80.81
2024-02-12T00:25:58.469Z,80.67
2024-02-12T00:28:30.240Z,80.51
2024-02-12T00:31:00.565Z,80.63
2024-02-12T00:33:31.319Z,80.60
2024-02-12T00:36:02.264Z,80.44
2024-02-12T00:38:32.880Z,80.43
2024-02-12T00:41:02.201Z,80.50
2024-02-12T00:43:34.229Z,80.37
2024-02-12T00:46:03.504Z,80.52
2024-02-12T00:48:34.110Z,80.30
2024-02-12T00:51:03.840Z,80.32
2024-02-12T00:53:34.566Z,80.24
2024-02-12T00:56:04.650Z,80.22
2024-02-12T00:58:35.419Z,80.18
2024-02-12T01:01:05.729Z,80.38
2024-02-12T01:03:37.634Z,80.44
2024-02-12T01:06:06.929Z,80.25
2024-02-12T01:08:41.922Z,80.38
2024-02-12T01:11:12.915Z,80.29
2024-02-12T01:13:42.481Z,80.33
2024-02-12T01:16:12.907Z,80.32
2024-02-12T01:18:42.243Z,80.41
2024-02-12T01:21:13.462Z,80.48
2024-02-12T01:23:43.266Z,80.23
2024-02-12T01:26:15.081Z,80.31
2024-02-12T01:28:44.427Z,80.28
2024-02-12T01:31:21.212Z,80.29
2024-02-12T01:33:52.193Z,80.26
2024-02-12T01:36:22.567Z,80.19
2024-02-12T01:38:53.514Z,79.99
2024-02-12T01:41:23.275Z,79.81
2024-02-12T01:43:53.989Z,79.62
2024-02-12T01:46:23.357Z,79.70
2024-02-12T01:48:55.439Z,79.35
2024-02-12T01:51:24.916Z,79.17
2024-02-12T01:53:55.965Z,79.22
2024-02-12T01:56:25.169Z,79.07
2024-02-12T01:58:55.814Z,79.09
2024-02-12T02:01:25.365Z,79.08
2024-02-12T02:03:56.684Z,79.15
2024-02-12T02:06:26.201Z,79.20
2024-02-12T02:08:58.105Z,79.20
2024-02-12T02:11:28.556Z,79.28
2024-02-12T02:14:00.198Z,79.10
2024-02-12T02:16:29.393Z,79.15
2024-02-12T02:18:59.850Z,79.13
2024-02-12T02:21:29.164Z,79.07
2024-02-12T02:24:00.160Z,78.99
2024-02-12T02:26:29.589Z,78.87
2024-02-12T02:29:00.740Z,78.97
2024-02-12T02:31:30.004Z,78.89
2024-02-12T02:34:01.150Z,78.82
2024-02-12T02:36:30.543Z,78.80
2024-02-12T02:39:04.375Z,78.81
2024-02-12T02:41:34.488Z,78.55
2024-02-12T02:44:05.738Z,78.59
2024-02-12T02:46:34.910Z,78.62
2024-02-12T02:49:05.372Z,78.60
2024-02-12T02:51:36.922Z,78.35
2024-02-12T02:54:09.662Z,78.23
2024-02-12T02:56:38.904Z,77.93
2024-02-12T02:59:10.946Z,78.24
2024-02-12T03:01:40.227Z,78.05
2024-02-12T03:04:10.697Z,78.02
2024-02-12T03:06:40.372Z,78.02
2024-02-12T03:09:12.121Z,77.98
2024-02-12T03:11:41.775Z,78.11
2024-02-12T03:14:12.422Z,78.31
2024-02-12T03:16:41.772Z,78.26
2024-02-12T03:19:12.414Z,78.11
2024-02-12T03:21:41.591Z,78.00
2024-02-12T03:24:12.031Z,77.97
2024-02-12T03:26:42.023Z,77.89
2024-02-12T03:29:13.841Z,77.86
2024-02-12T03:31:43.095Z,77.82
2024-02-12T03:34:14.149Z,77.88
2024-02-12T03:36:43.839Z,77.81
2024-02-12T03:39:15.535Z,77.61
2024-02-12T03:41:44.791Z,77.55
2024-02-12T03:44:15.351Z,77.49
2024-02-12T03:46:47.675Z,77.39
2024-02-12T03:49:36.887Z,77.36
2024-02-12T03:52:26.234Z,77.20
2024-02-12T03:55:15.789Z,77.16
2024-02-12T03:58:05.592Z,76.94
2024-02-12T04:00:37.198Z,77.24
2024-02-12T04:03:07.038Z,77.35
2024-02-12T04:05:37.687Z,77.21
2024-02-12T04:08:10.265Z,77.31
2024-02-12T04:10:40.798Z,77.37
2024-02-12T04:13:10.946Z,77.17
2024-02-12T04:15:42.303Z,77.32
2024-02-12T04:18:11.901Z,77.21
2024-02-12T04:20:42.433Z,77.01
2024-02-12T04:23:16.798Z,77.12
2024-02-12T04:25:47.545Z,77.13
2024-02-12T04:28:16.839Z,77.05
2024-02-12T04:30:48.877Z,76.98
2024-02-12T04:33:18.279Z,76.79
2024-02-12T04:35:48.842Z,76.72
2024-02-12T04:38:18.122Z,76.74
2024-02-12T04:40:51.429Z,76.79
2024-02-12T04:43:21.689Z,76.82
2024-02-12T04:45:53.610Z,76.50
2024-02-12T04:48:22.985Z,76.63
2024-02-12T04:50:54.061Z,76.73
2024-02-12T04:53:23.363Z,76.63
2024-02-12T04:55:54.027Z,76.80
2024-02-12T04:58:26.467Z,76.69
2024-02-12T05:00:57.336Z,76.69
2024-02-12T05:03:26.765Z,76.92
2024-02-12T05:05:58.732Z,76.84
2024-02-12T05:08:27.985Z,76.97
2024-02-12T05:10:58.819Z,77.38
2024-02-12T05:13:29.059Z,77.47
2024-02-12T05:15:59.545Z,77.47
2024-02-12T05:18:47.645Z,77.49
2024-02-12T05:21:37.366Z,77.83
2024-02-12T05:24:08.105Z,77.69
2024-02-12T05:26:38.211Z,77.68
2024-02-12T05:29:08.839Z,77.44
2024-02-12T05:31:38.345Z,77.11
2024-02-12T05:34:08.816Z,76.94
2024-02-12T05:36:38.299Z,76.67
2024-02-12T05:39:10.752Z,76.82
2024-02-12T05:41:40.170Z,76.67
2024-02-12T05:44:10.714Z,76.45
2024-02-12T05:46:41.110Z,76.36
2024-02-12T05:49:16.014Z,76.21
2024-02-12T05:51:46.985Z,76.40
2024-02-12T05:54:16.179Z,76.37
2024-02-12T05:56:48.973Z,76.45
2024-02-12T05:59:18.605Z,76.34
2024-02-12T06:01:49.301Z,76.18
2024-02-12T06:04:18.816Z,76.10
2024-02-12T06:06:49.559Z,76.09
2024-02-12T06:09:19.399Z,75.90
2024-02-12T06:11:50.009Z,75.91
2024-02-12T06:14:19.824Z,76.07
2024-02-12T06:16:50.878Z,76.08
2024-02-12T06:19:20.172Z,75.95
2024-02-12T06:21:50.664Z,75.81
2024-02-12T06:24:20.174Z,75.52
2024-02-12T06:26:51.340Z,75.65
2024-02-12T06:29:20.747Z,75.25
2024-02-12T06:31:51.256Z,75.07
2024-02-12T06:34:20.464Z,75.15
2024-02-12T06:36:51.074Z,75.04
2024-02-12T06:39:20.277Z,74.83
2024-02-12T06:41:51.516Z,74.96
2024-02-12T06:44:22.486Z,74.91
2024-02-12T06:46:53.199Z,74.79
2024-02-12T06:49:22.438Z,74.67
2024-02-12T06:51:52.920Z,74.63
2024-02-12T06:54:22.108Z,74.42
2024-02-12T06:56:52.540Z,74.38
2024-02-12T06:59:21.789Z,74.34
2024-02-12T07:01:52.572Z,74.37
2024-02-12T07:04:21.764Z,74.15
2024-02-12T07:06:52.403Z,73.98
2024-02-12T07:09:22.951Z,73.95
2024-02-12T07:11:53.554Z,73.98
2024-02-12T07:14:23.129Z,74.18
2024-02-12T07:16:53.793Z,74.23
2024-02-12T07:19:23.107Z,74.57
2024-02-12T07:21:53.823Z,74.56
2024-02-12T07:24:23.130Z,74.41
2024-02-12T07:26:53.552Z,74.15
2024-02-12T07:29:22.761Z,73.74
2024-02-12T07:31:53.278Z,73.44
2024-02-12T07:34:22.705Z,73.09
2024-02-12T07:36:53.518Z,72.96
2024-02-12T07:39:24.078Z,72.75
2024-02-12T07:41:55.613Z,72.81
2024-02-12T07:44:24.972Z,72.83
2024-02-12T07:46:55.684Z,72.74
2024-02-12T07:49:25.080Z,72.78
2024-02-12T07:51:56.592Z,72.52
2024-02-12T07:54:25.865Z,72.37
2024-02-12T07:56:56.831Z,72.28
2024-02-12T07:59:26.229Z,72.38
2024-02-12T08:01:56.872Z,72.34
2024-02-12T08:04:26.065Z,72.30
2024-02-12T08:06:58.540Z,72.16
2024-02-12T08:09:27.836Z,71.87
2024-02-12T08:11:58.454Z,71.79
2024-02-12T08:14:28.610Z,71.42
2024-02-12T08:16:59.236Z,71.26
2024-02-12T08:19:28.511Z,70.96
2024-02-12T08:21:59.551Z,70.65
2024-02-12T08:24:29.886Z,70.17
2024-02-12T08:27:00.714Z,70.12
2024-02-12T08:29:31.485Z,69.93
2024-02-12T08:32:02.217Z,69.74
2024-02-12T08:34:32.590Z,69.39
2024-02-12T08:37:03.025Z,69.09
2024-02-12T08:39:32.335Z,68.86
2024-02-12T08:42:02.955Z,68.69
2024-02-12T08:44:33.369Z,68.53
2024-02-12T08:47:03.955Z,68.30
2024-02-12T08:49:33.367Z,68.14
2024-02-12T08:52:04.379Z,68.10
2024-02-12T08:54:35.082Z,68.09
2024-02-12T08:57:07.471Z,67.74
2024-02-12T08:59:36.997Z,67.94
2024-02-12T09:02:10.266Z,68.22
2024-02-12T09:04:39.881Z,67.99
2024-02-12T09:07:13.098Z,67.95
2024-02-12T09:09:42.568Z,68.14
2024-02-12T09:12:13.829Z,67.81
2024-02-12T09:14:43.153Z,67.86
2024-02-12T09:17:17.292Z,67.89
2024-02-12T09:19:46.647Z,67.79
2024-02-12T09:22:17.658Z,67.45
2024-02-12T09:24:46.655Z,67.71
2024-02-12T09:27:17.284Z,67.76
2024-02-12T09:29:49.114Z,67.46
2024-02-12T09:32:19.909Z,66.93
2024-02-12T09:34:49.072Z,67.18
2024-02-12T09:37:20.296Z,67.05
2024-02-12T09:39:49.516Z,66.22
2024-02-12T09:42:20.044Z,66.33
2024-02-12T09:44:49.139Z,66.71
2024-02-12T09:47:19.735Z,66.75
2024-02-12T09:49:49.892Z,66.65
2024-02-12T09:52:20.721Z,66.39
2024-02-12T09:54:50.642Z,66.10
2024-02-12T09:57:21.171Z,65.82
2024-02-12T09:59:52.718Z,65.70
2024-02-12T10:02:25.562Z,64.90
2024-02-12T10:04:56.295Z,64.75
2024-02-12T10:07:36.516Z,64.51
2024-02-12T10:10:09.139Z,64.27
2024-02-12T10:12:38.481Z,64.70
2024-02-12T10:15:09.230Z,64.49
2024-02-12T10:17:38.461Z,63.99
2024-02-12T10:20:11.524Z,63.56
2024-02-12T10:22:41.604Z,63.25
2024-02-12T10:25:12.659Z,63.07
2024-02-12T10:27:42.052Z,62.52
2024-02-12T10:30:17.030Z,62.56
2024-02-12T10:32:52.043Z,62.44
2024-02-12T10:35:22.263Z,62.35
2024-02-12T10:37:53.019Z,62.37
2024-02-12T10:40:24.768Z,62.61
2024-02-12T10:42:55.362Z,60.86
2024-02-12T10:45:24.584Z,60.40
2024-02-12T10:47:56.351Z,60.33
2024-02-12T10:50:26.090Z,60.59
2024-02-12T10:52:57.137Z,60.49
2024-02-12T10:55:26.986Z,60.35
2024-02-12T10:57:57.521Z,60.39
2024-02-12T11:00:29.763Z,59.40
2024-02-12T11:03:01.903Z,59.20
2024-02-12T11:05:31.352Z,58.30
2024-02-12T11:08:05.970Z,58.59
2024-02-12T11:10:37.843Z,58.92
2024-02-12T11:13:07.503Z,58.90
2024-02-12T11:15:38.392Z,59.08
2024-02-12T11:18:14.550Z,58.08
2024-02-12T11:20:51.263Z,57.78
2024-02-12T11:23:25.153Z,56.89
2024-02-12T11:25:56.940Z,57.38
2024-02-12T11:28:28.438Z,57.97
2024-02-12T11:30:57.963Z,57.67
2024-02-12T11:33:29.427Z,58.37
2024-02-12T11:36:08.243Z,58.37
2024-02-12T11:38:52.364Z,57.94
2024-02-12T11:41:23.045Z,58.06
2024-02-12T11:43:52.601Z,58.34
2024-02-12T11:46:23.115Z,57.88
2024-02-12T11:49:02.432Z,56.89
2024-02-12T11:51:34.776Z,57.33
2024-02-12T11:54:04.407Z,56.79
2024-02-12T11:56:34.894Z,57.40
2024-02-12T11:59:06.928Z,57.45
2024-02-12T12:01:39.092Z,57.33
2024-02-12T12:04:08.616Z,57.50
2024-02-12T12:06:39.378Z,57.11
2024-02-12T12:09:10.242Z,56.77
2024-02-12T12:11:43.446Z,56.05
2024-02-12T12:14:12.927Z,56.39
2024-02-12T12:17:27.205Z,56.53
2024-02-12T12:19:36.787Z,56.64
2024-02-12T12:22:07.816Z,56.92
2024-02-12T12:24:39.453Z,57.70
2024-02-12T12:27:08.844Z,57.28
2024-02-12T12:29:39.420Z,56.40
2024-02-12T12:32:12.060Z,56.41
2024-02-12T12:34:43.503Z,56.77
2024-02-12T12:37:16.424Z,56.36
2024-02-12T12:39:46.933Z,55.16
2024-02-12T12:42:16.121Z,54.64
2024-02-12T12:44:47.637Z,54.23
2024-02-12T12:47:17.007Z,54.91
2024-02-12T12:49:48.363Z,54.97
2024-02-12T12:52:17.619Z,55.62
2024-02-12T12:54:48.639Z,56.06
2024-02-12T12:57:18.432Z,56.37
2024-02-12T12:59:49.098Z,56.72
2024-02-12T13:02:18.509Z,56.77
2024-02-12T13:04:56.396Z,57.47
2024-02-12T13:07:25.883Z,58.08
2024-02-12T13:09:56.659Z,58.54
2024-02-12T13:12:26.110Z,58.68
2024-02-12T13:14:56.562Z,59.35
2024-02-12T13:17:27.218Z,59.57
2024-02-12T13:19:57.830Z,59.92
2024-02-12T13:22:28.072Z,60.00
2024-02-12T13:25:07.282Z,60.38
2024-02-12T13:27:42.525Z,60.66
2024-02-12T13:30:13.054Z,60.94
2024-02-12T13:32:48.342Z,61.33
2024-02-12T13:35:19.065Z,61.46
2024-02-12T13:37:48.528Z,61.59
2024-02-12T13:40:24.606Z,62.05
2024-02-12T13:42:58.397Z,61.86
2024-02-12T13:45:27.698Z,62.06
2024-02-12T13:47:58.448Z,62.13
2024-02-12T13:50:28.080Z,62.08
2024-02-12T13:52:58.936Z,62.24
2024-02-12T13:55:28.585Z,62.47
2024-02-12T13:57:59.105Z,61.96
2024-02-12T14:00:46.809Z,61.84
2024-02-12T14:03:19.504Z,61.64
2024-02-12T14:05:49.034Z,61.67
2024-02-12T14:08:19.880Z,61.70
2024-02-12T14:10:50.389Z,61.46
2024-02-12T14:13:22.155Z,61.35
2024-02-12T14:16:05.374Z,61.32
2024-02-12T14:18:44.201Z,61.69
2024-02-12T14:21:16.059Z,61.73
2024-02-12T14:23:45.265Z,61.62
2024-02-12T14:26:18.059Z,61.83
2024-02-12T14:28:47.482Z,62.08
2024-02-12T14:31:18.633Z,62.16
2024-02-12T14:33:49.311Z,62.10
2024-02-12T14:36:22.457Z,62.24
2024-02-12T14:38:51.880Z,62.50
2024-02-12T14:41:22.487Z,63.03
2024-02-12T14:43:51.834Z,63.49
2024-02-12T14:46:22.370Z,63.74
2024-02-12T14:48:51.736Z,63.75
2024-02-12T14:51:23.431Z,63.83
2024-02-12T14:53:52.934Z,63.97
2024-02-12T14:56:23.613Z,64.28
2024-02-12T14:58:53.479Z,64.46
2024-02-12T15:01:27.091Z,64.68
2024-02-12T15:03:56.427Z,64.73
2024-02-12T15:06:26.908Z,64.01
2024-02-12T15:08:57.449Z,63.28
2024-02-12T15:11:27.968Z,62.95
2024-02-12T15:13:57.763Z,62.49
2024-02-12T15:16:29.023Z,62.62
2024-02-12T15:18:59.785Z,62.67
2024-02-12T15:21:30.305Z,62.86
2024-02-12T15:23:59.473Z,63.12
2024-02-12T15:26:31.045Z,63.42
2024-02-12T15:29:01.785Z,63.63
2024-02-12T15:31:33.539Z,64.04
2024-02-12T15:34:02.967Z,64.23
2024-02-12T15:36:33.766Z,64.59
2024-02-12T15:39:03.054Z,64.93
2024-02-12T15:41:33.633Z,65.14
2024-02-12T15:44:02.901Z,65.38
2024-02-12T15:46:35.144Z,65.82
2024-02-12T15:49:04.716Z,66.43
2024-02-12T15:51:35.835Z,66.96
2024-02-12T15:54:07.002Z,67.35
2024-02-12T15:56:38.356Z,67.55
2024-02-12T15:59:07.734Z,67.54
2024-02-12T16:01:41.804Z,67.80
2024-02-12T16:04:11.730Z,67.89
2024-02-12T16:06:42.392Z,68.01
2024-02-12T16:09:11.663Z,68.20
2024-02-12T16:11:43.043Z,68.08
2024-02-12T16:14:13.049Z,68.11
2024-02-12T16:16:43.846Z,68.21
2024-02-12T16:19:13.588Z,68.22
2024-02-12T16:21:46.540Z,68.27
2024-02-12T16:24:15.738Z,68.63
2024-02-12T16:26:46.361Z,68.95
2024-02-12T16:29:17.983Z,69.21
2024-02-12T16:31:51.062Z,69.45
2024-02-12T16:34:20.537Z,69.63
2024-02-12T16:36:52.866Z,69.47
2024-02-12T16:39:22.086Z,69.58
2024-02-12T16:41:52.729Z,69.61
2024-02-12T16:44:22.069Z,69.78
2024-02-12T16:46:52.558Z,69.89
2024-02-12T16:49:21.941Z,70.17
2024-02-12T16:51:52.791Z,70.31
2024-02-12T16:54:22.188Z,70.31
2024-02-12T16:56:54.033Z,70.43
2024-02-12T16:59:23.599Z,70.50
2024-02-12T17:01:54.082Z,70.34
2024-02-12T17:04:23.289Z,70.17
2024-02-12T17:06:53.958Z,70.20
2024-02-12T17:09:23.436Z,69.96
2024-02-12T17:11:54.611Z,69.82
2024-02-12T17:14:23.888Z,69.75
2024-02-12T17:16:54.816Z,69.88
2024-02-12T17:19:24.123Z,69.87
2024-02-12T17:21:54.848Z,69.93
2024-02-12T17:24:24.024Z,69.97
2024-02-12T17:26:55.472Z,69.93
2024-02-12T17:29:25.031Z,70.04
2024-02-12T17:31:55.817Z,70.20
2024-02-12T17:34:27.048Z,70.16
2024-02-12T17:36:57.588Z,70.35
2024-02-12T17:39:27.205Z,70.40
2024-02-12T17:41:59.582Z,70.34
2024-02-12T17:44:28.772Z,70.63
2024-02-12T17:47:00.401Z,70.89
2024-02-12T17:49:29.779Z,70.97
2024-02-12T17:52:00.253Z,71.18
2024-02-12T17:54:29.547Z,71.48
2024-02-12T17:57:00.148Z,71.66
2024-02-12T17:59:29.795Z,71.60
2024-02-12T18:02:01.001Z,71.72
2024-02-12T18:04:31.371Z,72.05
2024-02-12T18:07:02.702Z,71.97
2024-02-12T18:09:33.380Z,72.12
2024-02-12T18:12:06.935Z,72.24
2024-02-12T18:14:36.656Z,72.40
2024-02-12T18:17:11.115Z,72.54
2024-02-12T18:19:49.780Z,72.67
2024-02-12T18:22:23.391Z,72.85
2024-02-12T18:24:52.778Z,73.00
2024-02-12T18:27:23.314Z,73.19
2024-02-12T18:29:52.551Z,73.29
2024-02-12T18:32:24.177Z,73.37
2024-02-12T18:34:53.441Z,73.26
2024-02-12T18:37:25.662Z,73.42
2024-02-12T18:39:55.045Z,73.37
2024-02-12T18:42:31.805Z,73.54
2024-02-12T18:45:03.886Z,73.57
2024-02-12T18:47:33.510Z,73.51
2024-02-12T18:50:05.042Z,73.58
2024-02-12T18:52:34.332Z,73.78
2024-02-12T18:55:11.667Z,74.18
2024-02-12T18:57:43.830Z,74.05
2024-02-12T19:00:14.349Z,74.30
2024-02-12T19:02:45.871Z,74.22
2024-02-12T19:05:15.578Z,74.32
2024-02-12T19:07:46.618Z,74.24
2024-02-12T19:10:17.973Z,74.29
2024-02-12T19:12:50.854Z,74.25
2024-02-12T19:15:20.152Z,74.18
2024-02-12T19:17:51.676Z,74.06
2024-02-12T19:20:21.162Z,74.02
2024-02-12T19:22:51.934Z,73.93
2024-02-12T19:25:21.135Z,74.11
2024-02-12T19:27:52.430Z,74.00
2024-02-12T19:30:21.583Z,74.27
2024-02-12T19:32:54.077Z,74.32
2024-02-12T19:35:27.981Z,74.42
2024-02-12T19:38:01.234Z,74.81
2024-02-12T19:40:33.725Z,74.75
2024-02-12T19:43:06.355Z,74.84
2024-02-12T19:45:35.699Z,74.70
2024-02-12T19:48:07.847Z,74.96
2024-02-12T19:50:37.618Z,75.29
2024-02-12T19:53:08.859Z,75.44
2024-02-12T19:55:38.119Z,75.64
2024-02-12T19:58:08.761Z,75.72
2024-02-12T20:00:38.013Z,75.56
2024-02-12T20:03:08.742Z,75.43
2024-02-12T20:05:39.070Z,75.36
2024-02-12T20:08:09.811Z,75.53
2024-02-12T20:10:39.453Z,75.24
2024-02-12T20:13:09.986Z,75.14
2024-02-12T20:15:41.131Z,74.92
2024-02-12T20:18:11.840Z,75.11
2024-02-12T20:20:41.523Z,74.99
2024-02-12T20:23:12.157Z,75.03
2024-02-12T20:25:41.505Z,74.95
2024-02-12T20:28:14.070Z,74.95
2024-02-12T20:30:43.405Z,74.82
2024-02-12T20:33:14.363Z,74.89
2024-02-12T20:35:43.940Z,74.68
2024-02-12T20:38:14.700Z,74.69
2024-02-12T20:40:44.483Z,74.73
2024-02-12T20:43:16.500Z,74.70
2024-02-12T20:45:45.741Z,74.67
2024-02-12T20:48:18.961Z,74.83
2024-02-12T20:50:48.346Z,74.95
2024-02-12T20:53:19.692Z,74.83
2024-02-12T20:55:49.723Z,75.18
2024-02-12T20:58:20.225Z,75.20
2024-02-12T21:00:49.462Z,75.06
2024-02-12T21:03:19.951Z,75.33
2024-02-12T21:05:50.241Z,75.39
2024-02-12T21:08:20.841Z,75.54
2024-02-12T21:10:50.609Z,75.62
2024-02-12T21:13:21.134Z,75.57
2024-02-12T21:15:50.850Z,75.66
2024-02-12T21:18:21.493Z,75.74
2024-02-12T21:20:51.268Z,75.83
2024-02-12T21:23:22.322Z,75.81
2024-02-12T21:25:51.746Z,75.80
2024-02-12T21:28:22.353Z,75.69
2024-02-12T21:30:53.537Z,75.59
2024-02-12T21:33:24.163Z,75.71
2024-02-12T21:35:53.716Z,75.64
2024-02-12T21:38:33.528Z,75.75
2024-02-12T21:41:27.059Z,75.72
2024-02-12T21:43:58.080Z,75.97
2024-02-12T21:46:27.277Z,76.02
2024-02-12T21:48:58.169Z,75.94
2024-02-12T21:51:27.537Z,76.19
2024-02-12T21:53:58.317Z,76.20
2024-02-12T21:56:27.562Z,76.10
2024-02-12T21:58:58.070Z,76.30
2024-02-12T22:01:28.126Z,76.48
2024-02-12T22:04:00.239Z,76.41
2024-02-12T22:06:29.656Z,76.53
2024-02-12T22:09:00.398Z,76.39
2024-02-12T22:11:33.367Z,76.42
2024-02-12T22:14:04.310Z,76.65
2024-02-12T22:16:35.573Z,76.81
2024-02-12T22:19:06.250Z,76.79
2024-02-12T22:21:38.590Z,76.88
2024-02-12T22:24:09.097Z,76.91
2024-02-12T22:26:38.303Z,76.87
2024-02-12T22:29:09.154Z,77.08
2024-02-12T22:31:39.359Z,77.10
2024-02-12T22:34:11.377Z,77.30
2024-02-12T22:36:40.630Z,77.47
2024-02-12T22:39:11.259Z,77.39
2024-02-12T22:41:40.914Z,77.41
2024-02-12T22:44:11.556Z,77.42
2024-02-12T22:46:40.800Z,77.63
2024-02-12T22:49:11.348Z,77.45
2024-02-12T22:51:40.946Z,77.65
2024-02-12T22:54:12.506Z,77.55
2024-02-12T22:56:41.715Z,77.65
2024-02-12T22:59:12.557Z,77.78
2024-02-12T23:01:41.930Z,77.59
2024-02-12T23:04:21.873Z,77.62
2024-02-12T23:06:52.728Z,77.25
2024-02-12T23:09:22.430Z,77.11
2024-02-12T23:11:53.154Z,77.13
2024-02-12T23:14:25.163Z,77.16
2024-02-12T23:16:55.881Z,77.12
2024-02-12T23:19:25.359Z,77.04
2024-02-12T23:21:55.880Z,77.05
2024-02-12T23:24:25.190Z,77.30
2024-02-12T23:26:55.745Z,77.22
2024-02-12T23:29:25.130Z,77.40
2024-02-12T23:31:56.308Z,77.46
2024-02-12T23:34:25.927Z,77.60
2024-02-12T23:36:56.794Z,77.62
2024-02-12T23:39:30.401Z,77.62
2024-02-12T23:42:01.547Z,77.84
2024-02-12T23:44:30.854Z,77.84
2024-02-12T23:47:02.270Z,77.95
2024-02-12T23:49:32.234Z,78.05
2024-02-12T23:52:02.831Z,78.10
2024-02-12T23:54:34.260Z,78.25
2024-02-12T23:57:04.934Z,78.08
2024-02-12T23:59:34.216Z,78.05
